KBOS/BOS METAR and TAF weather

Enter ICAO airport designator
Station Type Date Time Source
KBOS METAR 2019/02/23 16:54 UTC NOAA

KBOS 231654Z 13006KT 10SM FEW045 OVC200 02/M06 A3045 RMK AO2 SLP312 T00221061


Station Type Date Time Source
KBOS Decoded METAR 2019/02/23 16:54 UTC NOAA

BOSTON LOGAN INTERNATIONAL, MA, United States (KBOS) 42-22N 071-01W 54M
Feb 23, 2019 - 11:54 AM EST / 2019.02.23 1654 UTC
Wind: from the SE (130 degrees) at 7 MPH (6 KT):0
Visibility: 10 mile(s):0
Sky conditions: overcast
Temperature: 36.0 F (2.2 C)
Dew Point: 21.0 F (-6.1 C)
Relative Humidity: 54%
Pressure (altimeter): 30.45 in. Hg (1031 hPa)
ob: KBOS 231654Z 13006KT 10SM FEW045 OVC200 02/M06 A3045 RMK AO2 SLP312 T00221061
cycle: 17

Station Type Date Time Source
KBOS TAF 2019/02/23 18:40 UTC NOAA

TAF KBOS 231736Z 2318/2424 11007KT P6SM BKN250
FM240800 11007KT P6SM -PLRA OVC025
FM241000 11008KT 3SM -RA BR OVC010
FM241200 11012G24KT 1SM -RA BR OVC008
FM242200 16011KT 3SM -DZ BR OVC008


Example: see airport list